Time;durP1;ratioP1;P1;durP2;ratioP2;P2;SDS_P1;SDS_P2;PMS_P1;PMS_P2;Temp;Humidity;BMP_temperature;BMP_pressure;BME280_temperature;BME280_humidity;BME280_pressure;Samples;Min_cycle;Max_cycle;Signal;HPM_P1;HPM_P2
2021/08/26 00:08:03;;;;;;;7.50;1.40;;;;;;;15.48;64.40;99566.84;112478;1200;22436;-58
2021/08/26 00:10:35;;;;;;;7.60;1.60;;;;;;;15.45;64.52;99565.80;112486;1200;25718;-58
2021/08/26 00:13:07;;;;;;;8.60;1.90;;;;;;;15.42;64.84;99566.27;112587;1200;22416;-60
2021/08/26 00:15:41;;;;;;;9.30;1.30;;;;;;;15.38;65.00;99558.83;112622;1193;22520;-58
2021/08/26 00:18:13;;;;;;;6.30;1.70;;;;;;;15.35;65.42;99559.44;112671;1200;25479;-59
2021/08/26 00:20:49;;;;;;;8.50;1.50;;;;;;;15.31;65.64;99553.50;112790;1200;22470;-58
2021/08/26 00:23:21;;;;;;;8.30;1.50;;;;;;;15.27;66.00;99547.70;112629;1200;22447;-60
2021/08/26 00:25:52;;;;;;;8.50;1.60;;;;;;;15.25;66.42;99538.69;112546;1200;25059;-59
2021/08/26 00:28:24;;;;;;;8.50;1.60;;;;;;;15.23;66.64;99531.69;112536;1200;22753;-61
2021/08/26 00:30:55;;;;;;;7.90;1.50;;;;;;;15.22;67.02;99529.06;112434;1200;24182;-62
2021/08/26 00:33:26;;;;;;;11.00;1.80;;;;;;;15.20;67.11;99524.73;112604;1200;22451;-61
2021/08/26 00:35:58;;;;;;;6.50;1.50;;;;;;;15.17;67.40;99521.05;112549;1200;22491;-62
2021/08/26 00:38:29;;;;;;;7.00;1.70;;;;;;;15.13;67.88;99516.64;112547;1200;23755;-62
2021/08/26 00:41:00;;;;;;;9.60;1.90;;;;;;;15.09;67.94;99508.60;112609;1199;26415;-59
2021/08/26 00:43:36;;;;;;;8.30;1.80;;;;;;;15.06;68.10;99499.02;112453;1200;22436;-59
2021/08/26 00:46:11;;;;;;;7.30;1.70;;;;;;;15.05;68.37;99496.84;112448;1199;25072;-57
2021/08/26 00:48:42;;;;;;;7.90;1.80;;;;;;;15.04;68.53;99492.66;112501;1199;25095;-61
2021/08/26 00:51:14;;;;;;;9.00;1.90;;;;;;;15.03;68.76;99481.93;112527;1200;23995;-61
2021/08/26 00:53:45;;;;;;;8.10;1.60;;;;;;;15.05;68.92;99485.14;112504;1200;22681;-57
2021/08/26 00:56:17;;;;;;;7.10;1.60;;;;;;;15.04;69.12;99476.05;112549;1200;22441;-60
2021/08/26 00:58:52;;;;;;;7.30;1.50;;;;;;;15.04;69.36;99476.14;112612;1200;25050;-60
2021/08/26 01:01:28;;;;;;;10.00;1.80;;;;;;;15.06;69.52;99475.16;112547;1200;25823;-58
2021/08/26 01:04:08;;;;;;;9.30;2.20;;;;;;;15.05;69.85;99479.02;112604;1200;22436;-61
2021/08/26 01:06:41;;;;;;;;;;;;;;;15.03;70.04;99473.81;112511;1200;25098;-58
2021/08/26 01:09:20;;;;;;;6.50;1.60;;;;;;;14.99;70.34;99478.26;112428;1200;25193;-59
2021/08/26 01:11:56;;;;;;;8.70;1.60;;;;;;;14.94;70.51;99474.21;112760;1200;22441;-59
2021/08/26 01:14:30;;;;;;;9.30;1.60;;;;;;;14.93;70.58;99471.53;112677;1199;25082;-59
2021/08/26 01:17:01;;;;;;;8.20;1.90;;;;;;;14.91;70.88;99468.80;112518;1200;22445;-61
2021/08/26 01:19:33;;;;;;;9.60;1.70;;;;;;;14.89;70.87;99467.98;112582;1200;22379;-60
2021/08/26 01:22:04;;;;;;;8.00;1.60;;;;;;;14.87;71.05;99467.45;112539;1200;22461;-60
2021/08/26 01:24:37;;;;;;;6.30;1.60;;;;;;;14.84;71.35;99464.67;112743;1201;25092;-59
2021/08/26 01:27:09;;;;;;;7.00;1.80;;;;;;;14.82;71.68;99466.13;112489;1200;25274;-61
2021/08/26 01:29:41;;;;;;;7.80;2.00;;;;;;;14.80;71.84;99460.79;112541;1200;22731;-62
2021/08/26 01:32:12;;;;;;;7.40;1.60;;;;;;;14.77;71.98;99458.98;112517;1200;22443;-59
2021/08/26 01:34:44;;;;;;;7.90;1.60;;;;;;;14.75;72.16;99459.81;112518;1200;24142;-60
2021/08/26 01:37:19;;;;;;;11.10;1.90;;;;;;;14.73;72.43;99458.70;112419;1199;25057;-61
2021/08/26 01:39:53;;;;;;;10.70;1.90;;;;;;;14.69;72.89;99460.38;112572;1201;22400;-67
2021/08/26 01:42:37;;;;;;;;;;;;;;;;;;;;;
2021/08/26 01:45:10;;;;;;;8.00;2.00;;;;;;;14.63;73.54;99455.08;112308;1200;25187;-64
2021/08/26 01:47:42;;;;;;;10.50;2.00;;;;;;;14.60;73.73;99459.25;112570;1200;22448;-62
2021/08/26 01:50:13;;;;;;;9.60;2.10;;;;;;;14.56;74.15;99453.25;112486;1201;23926;-63
2021/08/26 01:52:44;;;;;;;9.40;2.10;;;;;;;14.52;74.48;99453.61;112381;1200;22439;-62
2021/08/26 01:55:15;;;;;;;9.60;2.10;;;;;;;14.49;74.78;99453.79;112489;1200;22449;-60
2021/08/26 01:57:46;;;;;;;8.80;1.90;;;;;;;14.45;75.04;99448.16;112547;1200;24164;-61
2021/08/26 02:00:18;;;;;;;12.80;2.90;;;;;;;14.42;75.30;99447.32;112532;1200;24284;-60
2021/08/26 02:02:49;;;;;;;9.00;2.70;;;;;;;14.39;75.70;99446.43;112556;1200;23061;-61
2021/08/26 02:05:25;;;;;;;11.10;2.60;;;;;;;14.36;76.06;99447.21;112688;1200;25046;-62
2021/08/26 02:07:56;;;;;;;9.90;2.60;;;;;;;14.34;76.21;99446.11;112520;1200;25717;-61
2021/08/26 02:10:27;;;;;;;10.70;2.20;;;;;;;14.31;76.53;99440.02;112787;1199;25259;-59
2021/08/26 02:12:59;;;;;;;8.20;2.10;;;;;;;14.29;76.89;99437.23;112549;1199;27482;-62
2021/08/26 02:15:30;;;;;;;11.10;2.90;;;;;;;14.27;77.05;99438.73;112566;1200;24100;-62
2021/08/26 02:18:02;;;;;;;10.60;2.60;;;;;;;14.26;77.19;99437.77;112528;1201;22521;-62
2021/08/26 02:20:33;;;;;;;12.20;2.70;;;;;;;14.26;77.46;99434.52;112528;1200;24065;-62
2021/08/26 02:23:05;;;;;;;12.00;3.40;;;;;;;14.25;77.75;99429.27;112646;1200;23945;-60
2021/08/26 02:25:37;;;;;;;13.70;3.00;;;;;;;14.22;77.97;99426.94;112694;1201;22412;-61
2021/08/26 02:28:07;;;;;;;12.60;2.50;;;;;;;14.21;78.09;99421.81;112401;1200;23279;-61
2021/08/26 02:30:40;;;;;;;12.70;3.40;;;;;;;14.19;78.37;99422.89;112722;1195;25104;-62
2021/08/26 02:33:11;;;;;;;13.60;2.60;;;;;;;14.18;78.58;99419.23;111971;1201;25022;-62
2021/08/26 02:35:43;;;;;;;10.40;3.30;;;;;;;14.17;78.84;99419.18;111972;1201;22519;-62
2021/08/26 02:38:14;;;;;;;11.70;3.30;;;;;;;14.13;79.04;99418.75;111925;1202;22457;-60
2021/08/26 02:40:45;;;;;;;11.00;3.00;;;;;;;14.12;79.19;99417.23;111826;1201;25413;-62
2021/08/26 02:43:16;;;;;;;10.80;3.20;;;;;;;14.10;79.48;99418.63;112073;1201;22452;-62
2021/08/26 02:45:52;;;;;;;11.70;3.60;;;;;;;14.09;79.58;99414.09;112063;1201;22447;-63
2021/08/26 02:48:23;;;;;;;12.50;4.20;;;;;;;14.10;79.75;99413.37;111813;1201;22448;-63
2021/08/26 02:50:56;;;;;;;12.50;3.70;;;;;;;14.10;79.86;99415.77;111988;1202;23751;-62
2021/08/26 02:53:27;;;;;;;11.50;3.80;;;;;;;14.08;80.01;99409.35;111815;1201;25142;-62
2021/08/26 02:55:58;;;;;;;14.40;4.50;;;;;;;14.08;80.35;99409.30;111693;1202;25140;-62
2021/08/26 02:58:29;;;;;;;13.10;4.30;;;;;;;14.06;80.59;99407.23;111780;1201;22452;-62
2021/08/26 03:01:00;;;;;;;12.60;4.10;;;;;;;14.03;80.69;99408.33;111708;1201;23601;-63
2021/08/26 03:03:32;;;;;;;10.60;4.10;;;;;;;14.02;80.84;99403.17;111686;1202;22449;-62
2021/08/26 03:06:04;;;;;;;15.30;4.90;;;;;;;14.01;81.15;99404.42;111878;1201;25022;-64
2021/08/26 03:08:35;;;;;;;13.30;4.30;;;;;;;14.00;81.40;99402.64;111761;1201;25110;-65
2021/08/26 03:11:09;;;;;;;13.80;4.20;;;;;;;13.99;81.52;99401.98;111710;1201;22459;-63
2021/08/26 03:13:40;;;;;;;12.90;4.50;;;;;;;13.98;81.72;99395.10;111868;1201;24620;-62
2021/08/26 03:16:14;;;;;;;11.80;4.50;;;;;;;13.97;81.74;99394.80;111676;1202;23111;-61
2021/08/26 03:18:46;;;;;;;15.50;4.70;;;;;;;13.97;81.87;99390.73;111721;1201;22449;-61
2021/08/26 03:21:20;;;;;;;13.20;5.30;;;;;;;13.97;81.89;99387.81;111827;1201;22440;-61
2021/08/26 03:23:50;;;;;;;12.70;4.50;;;;;;;13.99;81.91;99388.20;111882;1201;25329;-62
2021/08/26 03:26:22;;;;;;;15.00;5.70;;;;;;;14.00;82.16;99391.36;111723;1201;22624;-61
2021/08/26 03:28:53;;;;;;;13.50;4.70;;;;;;;14.00;82.24;99391.81;111678;1202;25068;-62
2021/08/26 03:31:25;;;;;;;13.10;4.80;;;;;;;14.00;82.37;99389.13;111845;1201;24665;-62
2021/08/26 03:33:55;;;;;;;11.00;4.30;;;;;;;14.01;82.40;99389.83;111724;1201;25340;-62
2021/08/26 03:36:27;;;;;;;12.40;4.90;;;;;;;14.01;82.63;99385.44;111710;1201;22449;-62
2021/08/26 03:38:58;;;;;;;15.20;5.70;;;;;;;14.00;82.74;99386.05;111801;1201;22434;-62
2021/08/26 03:41:31;;;;;;;15.60;5.60;;;;;;;13.98;82.77;99385.29;111781;1201;25108;-62
2021/08/26 03:44:02;;;;;;;13.20;5.30;;;;;;;13.97;82.90;99382.20;111855;1201;22459;-62
2021/08/26 03:46:34;;;;;;;15.00;5.10;;;;;;;13.96;82.97;99377.45;111855;1201;22528;-62
2021/08/26 03:49:05;;;;;;;14.50;5.30;;;;;;;13.96;83.16;99377.92;111858;1202;22442;-62
2021/08/26 03:51:36;;;;;;;16.10;5.30;;;;;;;13.95;83.13;99378.08;111712;1201;24131;-62
2021/08/26 03:54:07;;;;;;;14.60;5.30;;;;;;;13.96;83.19;99373.59;111682;1201;22424;-62
2021/08/26 03:56:39;;;;;;;14.70;6.00;;;;;;;13.95;83.24;99375.84;111673;1201;22450;-62
2021/08/26 03:59:09;;;;;;;15.30;6.00;;;;;;;13.96;83.29;99375.83;111761;1201;22446;-63
2021/08/26 04:01:42;;;;;;;18.30;5.50;;;;;;;13.97;83.29;99375.71;111862;1201;25138;-62
2021/08/26 04:04:14;;;;;;;15.00;5.30;;;;;;;13.97;83.39;99371.34;111688;1201;22450;-62
2021/08/26 04:06:44;;;;;;;17.40;6.90;;;;;;;13.97;83.46;99369.90;111888;1201;25025;-62
2021/08/26 04:09:15;;;;;;;15.40;6.70;;;;;;;13.99;83.62;99372.23;111798;1201;22497;-63
2021/08/26 04:11:46;;;;;;;17.00;6.00;;;;;;;13.99;83.72;99370.39;111731;1201;22443;-63
2021/08/26 04:14:16;;;;;;;17.60;6.70;;;;;;;14.01;83.87;99374.63;111731;1201;25029;-63
2021/08/26 04:16:47;;;;;;;15.20;5.70;;;;;;;14.01;83.92;99365.85;111685;1201;22455;-63
2021/08/26 04:19:18;;;;;;;13.30;5.30;;;;;;;14.01;83.93;99369.31;111883;1201;22453;-63
2021/08/26 04:21:49;;;;;;;14.80;5.80;;;;;;;14.00;84.08;99364.79;111989;1201;25410;-62
2021/08/26 04:24:23;;;;;;;16.10;6.70;;;;;;;13.99;84.11;99362.20;111980;1201;22449;-63
2021/08/26 04:26:54;;;;;;;18.20;6.40;;;;;;;13.99;84.12;99359.13;111661;1195;22615;-63
2021/08/26 04:29:27;;;;;;;17.90;7.00;;;;;;;14.00;84.18;99358.97;111727;1201;24056;-62
2021/08/26 04:31:59;;;;;;;15.00;5.40;;;;;;;14.02;84.30;99350.79;111788;1201;25111;-67
2021/08/26 04:34:31;;;;;;;15.00;6.40;;;;;;;14.03;84.36;99358.52;112121;1201;24113;-64
2021/08/26 04:37:02;;;;;;;14.30;4.80;;;;;;;14.04;84.53;99359.84;111787;1201;26472;-63
2021/08/26 04:39:33;;;;;;;15.70;6.30;;;;;;;14.04;84.57;99358.46;111712;1202;22452;-63
2021/08/26 04:42:04;;;;;;;14.90;5.40;;;;;;;14.05;84.66;99364.34;111710;1201;24086;-62
2021/08/26 04:44:36;;;;;;;12.00;5.00;;;;;;;14.05;84.66;99361.16;111933;1201;22440;-63
2021/08/26 04:47:13;;;;;;;15.10;5.60;;;;;;;14.07;84.73;99348.73;111743;1201;22464;-63
2021/08/26 04:49:46;;;;;;;14.80;5.30;;;;;;;14.09;84.73;99347.55;111828;1201;25091;-63
2021/08/26 04:52:16;;;;;;;13.60;5.30;;;;;;;14.11;84.82;99352.33;111708;1203;22565;-62
2021/08/26 04:54:48;;;;;;;17.00;5.90;;;;;;;14.13;84.79;99353.42;111886;1201;25110;-63
2021/08/26 04:57:20;;;;;;;12.90;4.60;;;;;;;14.15;84.84;99355.15;111844;1201;22894;-64
2021/08/26 05:00:10;;;;;;;14.40;5.30;;;;;;;14.15;84.87;99352.52;111764;1201;22446;-62
2021/08/26 05:02:41;;;;;;;10.70;4.80;;;;;;;14.17;85.04;99349.17;112035;1203;25100;-62
2021/08/26 05:05:14;;;;;;;14.00;4.90;;;;;;;14.18;84.93;99354.36;111812;1201;22527;-62
2021/08/26 05:07:44;;;;;;;13.10;5.10;;;;;;;14.19;84.91;99353.77;112017;1201;25081;-62
2021/08/26 05:10:15;;;;;;;13.10;4.30;;;;;;;14.20;85.11;99357.19;111860;1202;24074;-63
2021/08/26 05:12:46;;;;;;;12.50;4.40;;;;;;;14.21;85.09;99354.38;111778;1203;25161;-62
2021/08/26 05:15:20;;;;;;;13.10;4.70;;;;;;;14.22;85.12;99349.72;112033;1202;24185;-61
2021/08/26 05:17:51;;;;;;;14.40;5.10;;;;;;;14.25;85.19;99343.92;111964;1202;22456;-60
2021/08/26 05:20:23;;;;;;;12.60;4.80;;;;;;;14.27;85.23;99342.52;111909;1202;25308;-59
2021/08/26 05:22:56;;;;;;;13.10;4.30;;;;;;;14.29;85.28;99342.67;111821;1201;24033;-59
2021/08/26 05:25:28;;;;;;;12.50;4.60;;;;;;;14.31;85.34;99337.71;111905;1201;24111;-60
2021/08/26 05:27:59;;;;;;;12.40;4.90;;;;;;;14.35;85.46;99338.73;111920;1201;22468;-59
2021/08/26 05:30:31;;;;;;;11.80;4.90;;;;;;;14.39;85.52;99339.84;111820;1201;22980;-59
2021/08/26 05:33:02;;;;;;;11.90;4.00;;;;;;;14.42;85.57;99345.45;112206;1203;22472;-59
2021/08/26 05:35:35;;;;;;;13.70;5.00;;;;;;;14.46;85.57;99340.52;111747;1201;24493;-59
2021/08/26 05:38:06;;;;;;;14.50;5.20;;;;;;;14.48;85.56;99341.95;111836;1202;24056;-58
2021/08/26 05:40:37;;;;;;;11.00;3.20;;;;;;;14.49;85.56;99340.33;111888;1201;22453;-60
2021/08/26 05:43:08;;;;;;;10.50;3.00;;;;;;;14.48;85.51;99339.31;111908;1201;25139;-59
2021/08/26 05:45:39;;;;;;;10.60;2.60;;;;;;;14.47;85.45;99341.67;111912;1201;22449;-57
2021/08/26 05:48:11;;;;;;;10.50;2.90;;;;;;;14.47;85.53;99340.24;111801;1202;24087;-59
2021/08/26 05:50:42;;;;;;;8.70;2.60;;;;;;;14.48;85.45;99342.02;114104;1195;22456;-60
2021/08/26 05:53:13;;;;;;;8.80;2.40;;;;;;;14.49;85.59;99345.94;112150;1201;25107;-59
2021/08/26 05:55:44;;;;;;;10.00;2.60;;;;;;;14.51;85.59;99346.59;112100;1201;22445;-61
2021/08/26 05:58:15;;;;;;;6.40;2.10;;;;;;;14.53;85.81;99354.06;111880;1201;22905;-62
2021/08/26 06:00:46;;;;;;;7.20;2.20;;;;;;;14.56;85.77;99351.27;111939;1201;22452;-60
2021/08/26 06:03:17;;;;;;;5.80;1.70;;;;;;;14.61;85.67;99352.39;111903;1201;22446;-60
2021/08/26 06:05:48;;;;;;;11.50;1.70;;;;;;;14.69;85.77;99356.23;111750;1201;25116;-60
2021/08/26 06:08:19;;;;;;;7.20;1.70;;;;;;;14.74;85.41;99348.52;111736;1201;25021;-59
2021/08/26 06:10:49;;;;;;;6.20;1.60;;;;;;;14.78;85.32;99349.39;111874;1201;22437;-60
2021/08/26 06:13:21;;;;;;;7.80;1.80;;;;;;;14.80;85.25;99345.16;112045;1201;22464;-58
2021/08/26 06:15:52;;;;;;;7.70;1.90;;;;;;;14.83;85.20;99343.09;112046;1204;22556;-60
2021/08/26 06:18:23;;;;;;;7.20;1.70;;;;;;;14.87;85.30;99343.51;112099;1202;26386;-60
2021/08/26 06:20:54;;;;;;;6.80;1.50;;;;;;;14.90;85.41;99341.01;112043;1202;22441;-59
2021/08/26 06:23:27;;;;;;;7.00;1.70;;;;;;;14.93;85.15;99342.60;112167;1201;22598;-59
2021/08/26 06:25:58;;;;;;;7.60;1.70;;;;;;;14.96;85.09;99339.36;112128;1195;25115;-60
2021/08/26 06:28:29;;;;;;;5.70;1.50;;;;;;;14.95;85.10;99335.83;111891;1202;22453;-59
2021/08/26 06:31:01;;;;;;;8.80;1.60;;;;;;;14.97;84.96;99344.48;112119;1201;22456;-59
2021/08/26 06:33:31;;;;;;;6.70;1.50;;;;;;;15.00;85.10;99343.63;112161;1194;22452;-61
2021/08/26 06:36:03;;;;;;;7.70;1.70;;;;;;;15.00;85.02;99341.95;111974;1201;22559;-59
2021/08/26 06:38:36;;;;;;;6.90;1.30;;;;;;;15.00;84.91;99344.80;112069;1201;24490;-60
2021/08/26 06:41:12;;;;;;;5.80;1.30;;;;;;;15.03;85.10;99347.63;112023;1201;26269;-60
2021/08/26 06:43:43;;;;;;;7.10;1.70;;;;;;;15.08;85.28;99347.06;112221;1201;22437;-60
2021/08/26 06:46:15;;;;;;;5.50;1.40;;;;;;;15.13;84.92;99345.92;112257;1202;24048;-59
2021/08/26 06:48:47;;;;;;;8.70;1.60;;;;;;;15.16;84.74;99344.52;112124;1201;22454;-60
2021/08/26 06:51:20;;;;;;;6.90;1.60;;;;;;;15.20;84.67;99341.98;112028;1195;22453;-58
2021/08/26 06:53:53;;;;;;;5.90;1.40;;;;;;;15.24;84.80;99336.25;112186;1201;22489;-60
2021/08/26 06:56:24;;;;;;;7.00;1.20;;;;;;;15.28;84.56;99334.16;111946;1201;24146;-59
2021/08/26 06:58:54;;;;;;;5.00;1.30;;;;;;;15.30;84.32;99332.89;111869;1203;23597;-60
2021/08/26 07:01:27;;;;;;;6.40;1.20;;;;;;;15.32;84.23;99333.11;112081;1201;25321;-61
2021/08/26 07:03:59;;;;;;;7.00;1.60;;;;;;;15.32;84.18;99327.79;112113;1201;22973;-61
2021/08/26 07:06:31;;;;;;;8.80;1.60;;;;;;;15.33;84.29;99328.97;112107;1194;25022;-61
2021/08/26 07:09:02;;;;;;;6.60;1.60;;;;;;;15.34;84.38;99332.02;112028;1200;22736;-61
2021/08/26 07:11:40;;;;;;;8.30;2.40;;;;;;;15.36;84.23;99333.72;112175;1201;22452;-58
2021/08/26 07:14:12;;;;;;;9.20;2.50;;;;;;;15.37;83.62;99330.69;112020;1196;25029;-59
2021/08/26 07:16:43;;;;;;;12.00;2.50;;;;;;;15.37;83.52;99332.12;112057;1204;23756;-60
2021/08/26 07:19:14;;;;;;;7.00;2.10;;;;;;;15.37;83.14;99332.23;111770;1201;22479;-60
2021/08/26 07:21:48;;;;;;;10.80;2.50;;;;;;;15.35;82.85;99319.25;111906;1201;22438;-61
2021/08/26 07:24:25;;;;;;;8.20;2.30;;;;;;;15.37;83.30;99320.87;112068;1201;22501;-62
2021/08/26 07:27:00;;;;;;;10.90;2.70;;;;;;;15.40;83.40;99322.06;112053;1201;25331;-61
2021/08/26 07:29:32;;;;;;;9.10;2.70;;;;;;;15.42;83.03;99317.48;111905;1201;24076;-61
2021/08/26 07:32:07;;;;;;;12.30;3.30;;;;;;;15.43;82.46;99325.27;112126;1200;25321;-60
2021/08/26 07:34:39;;;;;;;11.80;2.70;;;;;;;15.43;82.28;99330.08;112072;1202;24036;-59
2021/08/26 07:37:13;;;;;;;13.00;3.30;;;;;;;15.41;82.34;99327.81;111893;1201;25262;-61
2021/08/26 07:39:50;;;;;;;12.90;3.80;;;;;;;15.43;82.34;99330.23;112111;1204;25125;-59
2021/08/26 07:42:22;;;;;;;11.80;3.30;;;;;;;15.44;82.24;99327.66;111901;1203;25128;-60
2021/08/26 07:44:53;;;;;;;11.20;3.70;;;;;;;15.48;82.44;99330.55;111834;1201;24129;-62
2021/08/26 07:47:27;;;;;;;10.40;3.00;;;;;;;15.58;83.03;99332.34;112065;1201;22435;-61
2021/08/26 07:50:03;;;;;;;8.70;2.70;;;;;;;15.68;82.18;99333.05;112080;1202;25160;-62
2021/08/26 07:52:37;;;;;;;8.80;2.50;;;;;;;15.74;81.38;99324.96;112240;1200;22396;-59
2021/08/26 07:55:15;;;;;;;8.00;2.00;;;;;;;15.79;81.21;99325.77;112075;1204;25073;-61
2021/08/26 07:57:51;;;;;;;10.80;2.70;;;;;;;15.83;80.79;99319.51;112107;1202;27096;-60
2021/08/26 08:00:29;;;;;;;9.10;2.20;;;;;;;15.84;80.30;99324.35;112177;1202;25117;-61
2021/08/26 08:03:08;;;;;;;11.10;2.60;;;;;;;15.82;80.30;99320.59;112202;1206;22430;-62
2021/08/26 08:05:42;;;;;;;;;;;;;;;15.83;80.17;99325.13;112298;1200;25109;-61
2021/08/26 08:08:16;;;;;;;8.60;2.00;;;;;;;15.81;79.79;99329.01;112378;1206;25321;-60
2021/08/26 08:10:49;;;;;;;11.10;2.40;;;;;;;15.79;79.82;99323.04;112105;1206;22448;-60
2021/08/26 08:13:22;;;;;;;8.80;2.40;;;;;;;15.81;79.37;99317.95;112175;1204;25695;-60
2021/08/26 08:15:56;;;;;;;11.30;3.10;;;;;;;15.85;79.63;99311.85;112021;1202;22469;-62
2021/08/26 08:18:28;;;;;;;13.90;3.30;;;;;;;15.98;80.41;99309.63;112012;1201;24079;-60
2021/08/26 08:21:03;;;;;;;9.40;3.00;;;;;;;16.13;80.53;99303.00;112172;1204;22452;-60
2021/08/26 08:23:37;;;;;;;9.60;2.80;;;;;;;16.29;80.28;99299.38;112053;1204;25153;-63
2021/08/26 08:26:10;;;;;;;11.40;3.30;;;;;;;16.33;79.15;99301.25;111837;1201;24151;-61
2021/08/26 08:28:43;;;;;;;11.30;2.90;;;;;;;16.27;78.10;99306.09;112034;1201;22529;-62
2021/08/26 08:31:16;;;;;;;10.60;2.80;;;;;;;16.14;77.61;99310.02;112012;1202;22432;-61
2021/08/26 08:33:53;;;;;;;12.00;3.40;;;;;;;16.03;77.34;99306.25;111964;1201;22498;-60
2021/08/26 08:36:28;;;;;;;12.80;3.10;;;;;;;15.95;78.04;99305.78;112005;1206;23010;-61
2021/08/26 08:39:01;;;;;;;14.10;4.20;;;;;;;15.97;78.20;99299.50;112016;1204;22448;-61
2021/08/26 08:41:34;;;;;;;12.20;3.50;;;;;;;16.07;78.29;99297.33;111781;1201;22440;-59
2021/08/26 08:44:09;;;;;;;10.70;3.10;;;;;;;16.20;77.88;99296.07;112091;1202;22431;-61
2021/08/26 08:46:43;;;;;;;10.00;2.70;;;;;;;16.33;77.61;99294.39;111825;1201;25187;-61
2021/08/26 08:49:23;;;;;;;11.10;2.90;;;;;;;16.50;77.55;99295.65;112013;1202;24423;-62
2021/08/26 08:51:57;;;;;;;10.60;2.80;;;;;;;16.65;77.25;99297.16;111840;1202;24176;-61
2021/08/26 08:54:30;;;;;;;11.80;3.20;;;;;;;16.70;76.55;99292.07;111832;1201;25101;-59
2021/08/26 08:57:02;;;;;;;8.80;2.90;;;;;;;16.70;76.51;99297.30;111953;1203;24089;-60
2021/08/26 08:59:37;;;;;;;12.40;3.40;;;;;;;16.65;76.29;99299.91;112014;1203;25300;-59
2021/08/26 09:02:11;;;;;;;11.70;3.10;;;;;;;16.56;75.74;99307.06;112247;1201;25189;-62
2021/08/26 09:05:02;;;;;;;13.70;3.40;;;;;;;16.46;75.46;99307.45;112919;1206;22455;-61
2021/08/26 09:07:44;;;;;;;13.00;3.80;;;;;;;16.39;75.90;99304.31;112376;1206;24073;-65
2021/08/26 09:10:20;;;;;;;9.00;3.00;;;;;;;16.40;76.17;99307.25;111895;1201;22465;-64
2021/08/26 09:12:54;;;;;;;11.90;3.70;;;;;;;16.43;75.77;99308.05;112053;1201;22543;-64
2021/08/26 09:15:30;;;;;;;11.00;2.80;;;;;;;16.47;75.83;99301.85;111834;1201;22464;-61
2021/08/26 09:18:22;;;;;;;10.20;2.50;;;;;;;16.57;74.99;99304.44;111839;1205;22443;-61
2021/08/26 09:20:58;;;;;;;9.60;3.20;;;;;;;16.65;74.03;99311.85;111860;1201;25121;-60
2021/08/26 09:23:35;;;;;;;10.20;2.40;;;;;;;16.63;74.34;99306.11;111820;1202;26358;-60
2021/08/26 09:26:21;;;;;;;12.30;2.70;;;;;;;16.60;74.25;99309.03;111994;1202;22439;-61
2021/08/26 09:29:01;;;;;;;9.60;2.50;;;;;;;16.60;74.51;99304.84;112123;1204;22433;-61
2021/08/26 09:31:40;;;;;;;13.50;3.50;;;;;;;16.64;74.18;99301.95;112036;1201;22871;-60
2021/08/26 09:34:23;;;;;;;10.40;2.60;;;;;;;16.66;74.62;99302.77;112064;1206;25168;-61
2021/08/26 09:36:57;;;;;;;11.10;2.80;;;;;;;16.70;74.34;99300.98;112080;1201;25016;-58
2021/08/26 09:39:38;;;;;;;12.00;3.20;;;;;;;16.76;74.29;99301.06;111831;1203;25133;-61
2021/08/26 09:42:17;;;;;;;9.30;2.90;;;;;;;16.83;74.25;99300.31;112156;1201;22555;-60
2021/08/26 09:44:51;;;;;;;15.10;3.50;;;;;;;16.89;73.51;99297.61;112094;1202;22432;-60
2021/08/26 09:47:26;;;;;;;13.40;3.30;;;;;;;16.97;73.39;99293.39;111818;1201;23071;-59
2021/08/26 09:49:59;;;;;;;12.00;2.90;;;;;;;17.11;73.40;99293.65;112116;1201;22549;-60
2021/08/26 09:52:32;;;;;;;10.30;2.60;;;;;;;17.28;73.45;99286.90;112201;1201;22534;-58
2021/08/26 09:55:08;;;;;;;10.90;2.20;;;;;;;17.44;73.34;99279.68;111890;1202;22468;-60
2021/08/26 09:57:43;;;;;;;10.70;2.40;;;;;;;17.56;72.32;99281.67;111822;1203;23497;-59
2021/08/26 10:00:29;;;;;;;7.60;2.20;;;;;;;17.65;72.17;99278.89;112001;1203;22910;-60
2021/08/26 10:03:03;;;;;;;8.60;2.10;;;;;;;17.76;71.54;99278.23;111816;1202;24116;-61
2021/08/26 10:05:36;;;;;;;9.40;2.10;;;;;;;17.76;70.71;99274.52;111967;1202;25161;-61
2021/08/26 10:08:13;;;;;;;10.00;2.40;;;;;;;17.71;71.02;99276.98;111884;1202;26251;-61
2021/08/26 10:10:47;;;;;;;11.70;2.30;;;;;;;17.63;71.27;99278.27;112117;1204;22450;-61
2021/08/26 10:13:21;;;;;;;7.40;2.10;;;;;;;17.59;71.99;99281.51;112032;1206;24098;-61
2021/08/26 10:15:58;;;;;;;10.60;2.80;;;;;;;17.63;72.42;99284.48;111994;1202;24071;-61
2021/08/26 10:18:35;;;;;;;12.40;2.20;;;;;;;17.77;71.99;99282.05;112125;1201;22914;-59
2021/08/26 10:21:27;;;;;;;12.30;2.20;;;;;;;17.84;72.40;99295.77;112016;1205;22552;-69
2021/08/26 10:24:12;;;;;;;7.50;1.80;;;;;;;17.67;73.28;99303.23;111961;1201;25151;-66
2021/08/26 10:26:53;;;;;;;7.30;1.20;;;;;;;17.38;73.20;99307.50;111899;1202;22443;-61
2021/08/26 10:29:29;;;;;;;5.70;1.20;;;;;;;16.98;73.51;99315.20;111956;1202;22456;-60
2021/08/26 10:32:04;;;;;;;3.60;0.90;;;;;;;16.73;74.11;99316.77;111920;1202;22438;-60
2021/08/26 10:34:37;;;;;;;4.90;1.10;;;;;;;16.58;74.49;99310.25;111920;1202;22483;-61
2021/08/26 10:38:00;;;;;;;6.40;1.10;;;;;;;16.52;75.54;99302.16;112463;1201;22449;-60
2021/08/26 10:41:00;;;;;;;4.60;1.00;;;;;;;16.47;75.19;99298.45;111911;1202;22381;-61
2021/08/26 10:44:03;;;;;;;5.20;1.20;;;;;;;16.42;74.90;99298.19;111916;1201;22690;-58
2021/08/26 10:46:54;;;;;;;5.50;1.00;;;;;;;16.40;75.87;99293.89;112106;1202;22454;-60
2021/08/26 10:50:13;;;;;;;5.50;1.20;;;;;;;16.47;76.01;99295.19;112288;1201;22455;-57
2021/08/26 10:53:02;;;;;;;6.50;1.20;;;;;;;16.51;75.35;99292.86;112026;1200;24992;-60
2021/08/26 10:55:43;;;;;;;3.10;1.00;;;;;;;16.52;75.28;99292.50;111896;1201;22492;-62
2021/08/26 10:58:40;;;;;;;2.60;0.80;;;;;;;16.55;74.85;99287.88;111818;1202;25027;-60
2021/08/26 11:01:15;;;;;;;7.00;0.90;;;;;;;16.59;74.64;99288.31;111721;1201;22489;-62
2021/08/26 11:04:06;;;;;;;6.20;1.00;;;;;;;16.68;74.89;99285.65;111780;1202;24115;-61
2021/08/26 11:06:45;;;;;;;4.90;1.00;;;;;;;16.80;74.28;99281.52;111946;1201;23054;-62
2021/08/26 11:09:37;;;;;;;2.60;0.70;;;;;;;16.90;74.53;99277.13;111838;1201;22448;-58
2021/08/26 11:12:31;;;;;;;5.60;0.80;;;;;;;17.03;73.27;99286.91;111846;1201;24037;-63
2021/08/26 11:15:04;;;;;;;4.00;0.90;;;;;;;17.14;73.74;99286.81;111898;1202;24198;-62
2021/08/26 11:17:37;;;;;;;5.10;0.80;;;;;;;17.28;73.49;99284.10;111854;1204;24378;-63
2021/08/26 11:20:32;;;;;;;2.90;0.80;;;;;;;17.38;73.02;99287.79;111765;1201;22533;-64
2021/08/26 11:23:08;;;;;;;3.30;0.70;;;;;;;17.39;72.56;99288.02;111810;1202;25388;-64
2021/08/26 11:25:40;;;;;;;3.10;0.80;;;;;;;17.38;72.07;99286.61;111754;1201;23667;-62
2021/08/26 11:28:33;;;;;;;2.50;0.70;;;;;;;17.35;71.87;99285.50;111929;1201;22436;-62
2021/08/26 11:31:24;;;;;;;4.60;0.90;;;;;;;17.32;72.00;99283.52;111754;1198;22453;-62
2021/08/26 11:33:55;;;;;;;3.10;0.70;;;;;;;17.34;71.67;99285.27;111946;1202;22509;-63
2021/08/26 11:36:28;;;;;;;1.50;0.50;;;;;;;17.34;71.16;99289.07;111817;1201;22443;-64
2021/08/26 11:38:59;;;;;;;5.50;0.70;;;;;;;17.36;70.79;99286.60;112113;1202;25383;-63
2021/08/26 11:41:32;;;;;;;4.40;0.50;;;;;;;17.41;71.01;99285.41;111649;1201;22447;-63
2021/08/26 11:44:12;;;;;;;3.00;0.70;;;;;;;17.45;70.56;99293.27;111871;1202;25065;-63
2021/08/26 11:46:45;;;;;;;2.80;0.50;;;;;;;17.45;69.48;99297.48;111947;1202;23103;-63
2021/08/26 11:52:04;;;;;;;2.60;0.60;;;;;;;17.35;68.68;99299.71;112415;1202;22469;-61
2021/08/26 11:54:43;;;;;;;4.20;0.50;;;;;;;17.30;68.71;99299.88;112238;1202;25093;-62
2021/08/26 11:57:16;;;;;;;1.90;0.50;;;;;;;17.26;68.77;99306.54;112435;1201;22457;-63
2021/08/26 11:59:47;;;;;;;3.90;0.60;;;;;;;17.23;68.55;99303.23;112257;1202;22499;-61
2021/08/26 12:02:23;;;;;;;6.20;0.50;;;;;;;17.19;68.78;99299.58;113022;1203;23398;-61
2021/08/26 12:04:56;;;;;;;1.50;0.40;;;;;;;17.20;68.64;99301.23;116031;1195;22932;-62